createdAt,value
2018-09-13T00:02:32.590Z,99951.06
2018-09-13T00:05:37.063Z,99945.95
2018-09-13T00:08:41.581Z,99952.24
2018-09-13T00:11:46.155Z,99951.60
2018-09-13T00:14:50.714Z,99954.86
2018-09-13T00:17:55.279Z,99955.47
2018-09-13T00:20:59.753Z,99965.47
2018-09-13T00:24:04.255Z,99966.69
2018-09-13T00:27:08.729Z,99958.20
2018-09-13T00:30:13.434Z,99960.30
2018-09-13T00:33:17.920Z,99960.22
2018-09-13T00:36:22.383Z,99960.89
2018-09-13T00:39:26.909Z,99974.00
2018-09-13T00:42:31.472Z,99974.55
2018-09-13T00:45:36.044Z,99973.00
2018-09-13T00:48:40.524Z,99975.91
2018-09-13T00:51:45.028Z,99972.33
2018-09-13T00:54:49.566Z,99976.38
2018-09-13T00:57:54.077Z,99976.38
2018-09-13T01:00:58.563Z,99975.77
2018-09-13T01:04:03.083Z,99977.31
2018-09-13T01:07:07.607Z,99970.16
2018-09-13T01:10:12.162Z,99973.28
2018-09-13T01:13:16.635Z,99970.39
2018-09-13T01:16:21.113Z,99964.00
2018-09-13T01:19:25.808Z,99961.37
2018-09-13T01:22:30.513Z,99963.22
2018-09-13T01:25:34.970Z,99965.56
2018-09-13T01:28:39.514Z,99960.03
2018-09-13T01:31:44.039Z,99963.70
2018-09-13T01:34:48.515Z,99961.00
2018-09-13T01:37:52.997Z,99956.38
2018-09-13T01:40:57.625Z,99951.11
2018-09-13T01:44:02.138Z,99950.91
2018-09-13T01:47:06.721Z,99953.88
2018-09-13T01:50:11.220Z,99949.16
2018-09-13T01:53:15.733Z,99946.17
2018-09-13T01:56:20.205Z,99936.72
2018-09-13T01:59:24.703Z,99937.92
2018-09-13T02:02:29.192Z,99935.27
2018-09-13T02:05:33.763Z,99933.42
2018-09-13T02:08:38.269Z,99933.67
2018-09-13T02:11:42.794Z,99927.60
2018-09-13T02:14:47.285Z,99920.00
2018-09-13T02:17:51.757Z,99915.81
2018-09-13T02:20:56.277Z,99912.67
2018-09-13T02:24:00.841Z,99918.05
2018-09-13T02:27:05.425Z,99916.36
2018-09-13T02:30:09.909Z,99910.55
2018-09-13T02:33:14.417Z,99917.27
2018-09-13T02:36:18.997Z,99915.86
2018-09-13T02:39:23.506Z,99918.52
2018-09-13T02:42:28.095Z,99923.17
2018-09-13T02:45:32.620Z,99924.96
2018-09-13T02:48:37.222Z,99927.95
2018-09-13T02:51:41.809Z,99928.06
2018-09-13T02:54:46.285Z,99922.11
2018-09-13T02:57:50.770Z,99927.11
2018-09-13T03:00:55.242Z,99925.54
2018-09-13T03:03:59.729Z,99933.81
2018-09-13T03:07:04.208Z,99928.75
2018-09-13T03:10:08.841Z,99923.70
2018-09-13T03:13:13.427Z,99929.12
2018-09-13T03:16:17.938Z,99929.98
2018-09-13T03:19:22.517Z,99928.67
2018-09-13T03:22:27.036Z,99928.56
2018-09-13T03:25:31.565Z,99918.27
2018-09-13T03:28:36.241Z,99918.28
2018-09-13T03:31:41.836Z,99930.16
2018-09-13T03:34:46.480Z,99917.63
2018-09-13T03:37:51.106Z,99910.93
2018-09-13T03:40:55.557Z,99905.34
2018-09-13T03:44:00.163Z,99905.64
2018-09-13T03:47:04.660Z,99909.28
2018-09-13T03:50:09.332Z,99910.50
2018-09-13T03:53:13.777Z,99914.92
2018-09-13T03:56:18.263Z,99906.36
2018-09-13T03:59:22.801Z,99915.31
2018-09-13T04:02:27.399Z,99910.30
2018-09-13T04:05:31.895Z,99908.19
2018-09-13T04:08:36.480Z,99904.23
2018-09-13T04:11:41.172Z,99906.47
2018-09-13T04:14:45.775Z,99906.84
2018-09-13T04:17:50.282Z,99907.41
2018-09-13T04:20:54.774Z,99913.55
2018-09-13T04:23:59.539Z,99902.46
2018-09-13T04:27:04.157Z,99911.25
2018-09-13T04:30:08.699Z,99918.09
2018-09-13T04:33:13.233Z,99911.82
2018-09-13T04:36:17.734Z,99913.83
2018-09-13T04:39:22.171Z,99915.75
2018-09-13T04:42:26.753Z,99917.30
2018-09-13T04:45:31.238Z,99922.25
2018-09-13T04:48:35.837Z,99922.19
2018-09-13T04:51:40.319Z,99930.32
2018-09-13T04:54:44.838Z,99932.47
2018-09-13T04:57:49.484Z,99934.52
2018-09-13T05:00:54.012Z,99933.13
2018-09-13T05:03:58.508Z,99932.53
2018-09-13T05:07:03.324Z,99933.00
2018-09-13T05:10:08.038Z,99934.60
2018-09-13T05:13:12.662Z,99931.89
2018-09-13T05:16:17.256Z,99935.55
2018-09-13T05:19:21.780Z,99935.47
2018-09-13T05:22:26.302Z,99937.70
2018-09-13T05:25:30.990Z,99939.50
2018-09-13T05:28:35.519Z,99937.58
2018-09-13T05:31:40.066Z,99938.89
2018-09-13T05:34:44.617Z,99935.44
2018-09-13T05:37:49.168Z,99938.34
2018-09-13T05:40:53.664Z,99939.22
2018-09-13T05:43:58.423Z,99940.52
2018-09-13T05:47:02.884Z,99945.09
2018-09-13T05:50:07.559Z,99939.55
2018-09-13T05:53:12.117Z,99940.35
2018-09-13T05:56:16.625Z,99941.60
2018-09-13T05:59:21.133Z,99944.32
2018-09-13T06:02:25.683Z,99949.34
2018-09-13T06:05:30.430Z,99948.90
2018-09-13T06:08:34.967Z,99952.44
2018-09-13T06:11:39.572Z,99945.73
2018-09-13T06:14:44.252Z,99943.20
2018-09-13T06:17:48.853Z,99952.20
2018-09-13T06:20:53.511Z,99952.06
2018-09-13T06:23:58.048Z,99945.40
2018-09-13T06:27:02.745Z,99943.36
2018-09-13T06:30:07.299Z,99951.02
2018-09-13T06:33:11.822Z,99945.82
2018-09-13T06:36:16.292Z,99945.36
2018-09-13T06:39:20.872Z,99951.53
2018-09-13T06:42:25.504Z,99945.78
2018-09-13T06:45:29.914Z,99951.02
2018-09-13T06:48:34.451Z,99950.23
2018-09-13T06:51:38.972Z,99946.09
2018-09-13T06:54:43.674Z,99944.28
2018-09-13T06:57:48.257Z,99934.91
2018-09-13T07:00:52.807Z,99929.55
2018-09-13T07:03:57.395Z,99931.94
2018-09-13T07:07:01.866Z,99936.62
2018-09-13T07:10:06.494Z,99941.61
2018-09-13T07:13:11.010Z,99944.64
2018-09-13T07:16:15.501Z,99948.77
2018-09-13T07:19:20.141Z,99951.03
2018-09-13T07:22:24.693Z,99950.48
2018-09-13T07:25:29.165Z,99951.91
2018-09-13T07:28:33.653Z,99957.06
2018-09-13T07:31:38.126Z,99958.91
2018-09-13T07:34:42.666Z,99959.18
2018-09-13T07:37:47.416Z,99961.88
2018-09-13T07:40:51.868Z,99960.28
2018-09-13T07:43:56.434Z,99955.90
2018-09-13T07:47:01.174Z,99959.47
2018-09-13T07:50:05.808Z,99963.15
2018-09-13T07:53:10.340Z,99961.11
2018-09-13T07:56:14.873Z,99953.18
2018-09-13T07:59:19.324Z,99960.02
2018-09-13T08:02:23.807Z,99958.64
2018-09-13T08:05:28.311Z,99967.13
2018-09-13T08:08:32.784Z,99963.48
2018-09-13T08:11:37.411Z,99962.17
2018-09-13T08:14:41.921Z,99968.99
2018-09-13T08:17:46.544Z,99973.05
2018-09-13T08:20:51.472Z,99965.14
2018-09-13T08:23:55.939Z,99974.74
2018-09-13T08:27:00.687Z,99969.10
2018-09-13T08:30:05.487Z,99979.74
2018-09-13T08:33:10.002Z,99982.28
2018-09-13T08:36:14.432Z,99983.09
2018-09-13T08:39:19.792Z,99974.52
2018-09-13T08:42:24.302Z,99979.18
2018-09-13T08:45:28.870Z,99986.24
2018-09-13T08:48:33.707Z,99983.99
2018-09-13T08:51:38.216Z,99975.34
2018-09-13T08:54:42.813Z,99979.20
2018-09-13T08:57:47.622Z,99977.52
2018-09-13T09:00:52.158Z,99974.81
2018-09-13T09:03:56.737Z,99987.41
2018-09-13T09:07:01.302Z,99982.80
2018-09-13T09:10:05.907Z,99983.05
2018-09-13T09:13:11.110Z,99984.16
2018-09-13T09:16:15.593Z,99985.17
2018-09-13T09:19:20.335Z,99979.95
2018-09-13T09:22:25.281Z,99973.71
2018-09-13T09:25:29.833Z,99974.78
2018-09-13T09:28:34.310Z,99972.00
2018-09-13T09:31:38.791Z,99972.44
2018-09-13T09:34:43.301Z,99972.98
2018-09-13T09:37:47.840Z,99964.42
2018-09-13T09:40:52.547Z,99967.45
2018-09-13T09:43:57.280Z,99967.58
2018-09-13T09:47:01.882Z,99965.58
2018-09-13T09:50:08.054Z,99968.86
2018-09-13T09:53:12.499Z,99965.81
2018-09-13T09:56:17.401Z,99970.47
2018-09-13T09:59:21.780Z,99975.16
2018-09-13T10:02:26.243Z,99967.84
2018-09-13T10:05:30.940Z,99966.20
2018-09-13T10:08:35.723Z,99962.17
2018-09-13T10:11:40.525Z,99964.25
2018-09-13T10:14:49.319Z,99962.31
2018-09-13T10:17:59.309Z,99958.75
2018-09-13T10:21:09.011Z,99967.56
2018-09-13T10:24:18.745Z,99973.08
2018-09-13T10:27:28.303Z,99967.55
2018-09-13T10:30:38.158Z,99958.89
2018-09-13T10:33:49.023Z,99963.02
2018-09-13T10:37:04.312Z,99959.56
2018-09-13T10:40:13.971Z,99950.02
2018-09-13T10:43:23.617Z,99942.84
2018-09-13T10:46:31.095Z,99944.75
2018-09-13T10:49:40.658Z,99939.03
2018-09-13T10:52:51.087Z,99939.50
2018-09-13T10:56:00.107Z,99929.97
2018-09-13T10:59:04.589Z,99921.52
2018-09-13T11:02:25.059Z,99931.27
2018-09-13T11:05:29.593Z,99925.45
2018-09-13T11:08:34.439Z,99923.06
2018-09-13T11:11:39.961Z,99927.66
2018-09-13T11:14:53.029Z,99923.81
2018-09-13T11:17:57.677Z,99918.28
2018-09-13T11:21:02.693Z,99923.19
2018-09-13T11:24:07.527Z,99917.57
2018-09-13T11:27:12.050Z,99918.80
2018-09-13T11:30:16.548Z,99912.84
2018-09-13T11:33:22.795Z,99919.53
2018-09-13T11:36:43.930Z,99921.42
2018-09-13T11:39:48.556Z,99924.01
2018-09-13T11:42:52.993Z,99918.16
2018-09-13T11:49:12.691Z,99913.90
2018-09-13T11:52:17.367Z,99913.69
2018-09-13T11:55:35.082Z,99919.13
2018-09-13T11:58:39.686Z,99916.94
2018-09-13T12:01:44.129Z,99910.22
2018-09-13T12:04:48.611Z,99917.69
2018-09-13T12:07:53.178Z,99920.66
2018-09-13T12:10:58.249Z,99923.81
2018-09-13T12:14:02.735Z,99909.28
2018-09-13T12:17:07.251Z,99908.00
2018-09-13T12:20:11.719Z,99905.48
2018-09-13T12:23:16.222Z,99903.81
2018-09-13T12:26:20.791Z,99913.17
2018-09-13T12:29:25.314Z,99917.64
2018-09-13T12:32:31.041Z,99919.00
2018-09-13T12:35:36.868Z,99921.49
2018-09-13T12:38:41.389Z,99915.36
2018-09-13T12:41:45.931Z,99913.36
2018-09-13T12:44:50.467Z,99906.54
2018-09-13T12:48:01.978Z,99908.38
2018-09-13T12:51:23.293Z,99906.94
2018-09-13T12:54:28.548Z,99912.38
2018-09-13T12:57:33.003Z,99920.31
2018-09-13T13:00:37.454Z,99925.78
2018-09-13T13:03:42.018Z,99929.80
2018-09-13T13:06:46.635Z,99920.50
2018-09-13T13:09:51.117Z,99923.48
2018-09-13T13:12:55.569Z,99913.45
2018-09-13T13:16:00.121Z,99912.69
2018-09-13T13:19:04.714Z,99909.87
2018-09-13T13:22:09.253Z,99903.34
2018-09-13T13:25:13.824Z,99909.29
2018-09-13T13:28:18.321Z,99907.99
2018-09-13T13:31:22.811Z,99898.33
2018-09-13T13:34:27.346Z,99900.91
2018-09-13T13:37:33.326Z,99909.16
2018-09-13T13:40:37.818Z,99904.61
2018-09-13T13:43:44.091Z,99897.80
2018-09-13T13:46:52.809Z,99888.36
2018-09-13T13:49:58.112Z,99884.19
2018-09-13T13:53:02.528Z,99881.25
2018-09-13T13:56:07.010Z,99884.15
2018-09-13T13:59:11.566Z,99876.62
2018-09-13T14:02:16.031Z,99875.94
2018-09-13T14:05:20.710Z,99875.97
2018-09-13T14:08:25.192Z,99869.69
2018-09-13T14:11:29.698Z,99871.34
2018-09-13T14:14:34.192Z,99872.35
2018-09-13T14:17:38.794Z,99865.39
2018-09-13T14:20:47.664Z,99874.67
2018-09-13T14:23:52.626Z,99867.80
2018-09-13T14:26:57.238Z,99873.53
2018-09-13T14:30:02.038Z,99875.12
2018-09-13T14:33:06.942Z,99873.06
2018-09-13T14:36:11.545Z,99873.10
2018-09-13T14:39:16.218Z,99869.47
2018-09-13T14:42:21.015Z,99866.63
2018-09-13T14:45:25.595Z,99857.53
2018-09-13T14:48:30.331Z,99854.48
2018-09-13T14:51:35.061Z,99854.23
2018-09-13T14:54:40.184Z,99862.13
2018-09-13T14:58:00.651Z,99849.04
2018-09-13T15:01:24.262Z,99854.11
2018-09-13T15:04:38.800Z,99845.11
2018-09-13T15:08:01.269Z,99847.84
2018-09-13T15:26:18.520Z,99839.31
2018-09-13T15:29:27.197Z,99838.98
2018-09-13T15:32:32.680Z,99826.16
2018-09-13T15:35:38.185Z,99833.14
2018-09-13T15:38:42.731Z,99840.19
2018-09-13T15:41:47.139Z,99841.25
2018-09-13T15:44:51.702Z,99843.07
2018-09-13T15:47:56.137Z,99846.53
2018-09-13T15:51:00.623Z,99848.44
2018-09-13T15:54:05.181Z,99857.47
2018-09-13T15:57:09.792Z,99853.01
2018-09-13T16:00:14.279Z,99854.98
2018-09-13T16:03:18.750Z,99865.59
2018-09-13T16:06:23.257Z,99866.92
2018-09-13T16:09:27.760Z,99870.61
2018-09-13T16:12:32.361Z,99870.94
2018-09-13T16:15:36.832Z,99874.70
2018-09-13T16:18:42.340Z,99878.58
2018-09-13T16:21:47.397Z,99874.47
2018-09-13T16:24:51.920Z,99864.95
2018-09-13T16:27:57.151Z,99872.59
2018-09-13T16:31:01.870Z,99870.20
2018-09-13T16:34:06.806Z,99871.05
2018-09-13T16:37:12.887Z,99871.88
2018-09-13T16:40:24.012Z,99872.22
2018-09-13T16:43:34.623Z,99877.48
2018-09-13T16:46:44.305Z,99877.77
2018-09-13T16:49:48.814Z,99882.48
2018-09-13T16:52:53.535Z,99880.59
2018-09-13T16:55:58.021Z,99882.81
2018-09-13T16:59:02.472Z,99877.06
2018-09-13T17:02:07.099Z,99885.88
2018-09-13T17:05:11.615Z,99882.34
2018-09-13T17:08:16.171Z,99878.84
2018-09-13T17:11:20.697Z,99878.84
2018-09-13T17:14:25.149Z,99884.91
2018-09-13T17:17:29.687Z,99885.47
2018-09-13T17:20:34.220Z,99892.89
2018-09-13T17:23:38.847Z,99894.91
2018-09-13T17:26:43.298Z,99889.98
2018-09-13T17:29:47.882Z,99898.48
2018-09-13T17:32:52.451Z,99898.22
2018-09-13T17:35:56.946Z,99907.28
2018-09-13T17:39:01.681Z,99907.28
2018-09-13T17:42:06.675Z,99912.76
2018-09-13T17:45:11.165Z,99917.13
2018-09-13T17:48:15.646Z,99915.23
2018-09-13T17:51:20.223Z,99920.66
2018-09-13T17:54:24.670Z,99915.19
2018-09-13T17:57:29.195Z,99926.67
2018-09-13T18:00:33.716Z,99928.59
2018-09-13T18:03:38.824Z,99927.19
2018-09-13T18:06:43.416Z,99934.84
2018-09-13T18:09:48.550Z,99938.40
2018-09-13T18:12:53.236Z,99942.72
2018-09-13T18:15:57.738Z,99940.77
2018-09-13T18:19:02.755Z,99943.77
2018-09-13T18:22:07.352Z,99941.58
2018-09-13T18:25:11.819Z,99944.22
2018-09-13T18:28:16.395Z,99948.30
2018-09-13T18:31:20.906Z,99943.88
2018-09-13T18:34:25.760Z,99940.55
2018-09-13T18:37:30.351Z,99945.97
2018-09-13T18:40:34.889Z,99950.03
2018-09-13T18:43:39.387Z,99959.02
2018-09-13T18:46:44.023Z,99960.95
2018-09-13T18:49:48.534Z,99955.48
2018-09-13T18:52:53.156Z,99966.60
2018-09-13T18:55:57.655Z,99964.38
2018-09-13T18:59:02.089Z,99965.55
2018-09-13T19:02:07.594Z,99965.58
2018-09-13T19:05:23.385Z,99968.23
2018-09-13T19:08:28.396Z,99964.09
2018-09-13T19:11:32.987Z,99963.87
2018-09-13T19:14:37.529Z,99970.37
2018-09-13T19:17:41.977Z,99962.37
2018-09-13T19:20:46.681Z,99960.41
2018-09-13T19:23:51.226Z,99965.39
2018-09-13T19:26:55.771Z,99957.67
2018-09-13T19:30:00.338Z,99966.47
2018-09-13T19:33:04.829Z,99965.95
2018-09-13T19:36:09.318Z,99975.37
2018-09-13T19:39:14.182Z,99973.28
2018-09-13T19:42:18.799Z,99978.20
2018-09-13T19:45:23.449Z,99978.20
2018-09-13T19:48:29.283Z,99973.27
2018-09-13T19:51:34.292Z,99981.41
2018-09-13T19:54:49.481Z,99990.23
2018-09-13T19:57:54.316Z,99980.63
2018-09-13T20:00:59.096Z,99975.70
2018-09-13T20:04:03.651Z,99980.63
2018-09-13T20:07:08.290Z,99983.30
2018-09-13T20:10:12.876Z,99976.56
2018-09-13T20:13:17.513Z,99976.81
2018-09-13T20:16:22.150Z,99974.35
2018-09-13T20:19:26.732Z,99977.06
2018-09-13T20:22:31.616Z,99979.66
2018-09-13T20:25:36.309Z,99979.58
2018-09-13T20:28:40.866Z,99980.13
2018-09-13T20:31:45.420Z,99981.74
2018-09-13T20:34:50.000Z,99980.95
2018-09-13T20:37:54.794Z,99989.13
2018-09-13T20:40:59.367Z,99986.83
2018-09-13T20:44:03.933Z,99983.83
2018-09-13T20:47:08.426Z,99986.88
2018-09-13T20:50:12.947Z,99991.81
2018-09-13T20:53:17.489Z,99992.98
2018-09-13T20:56:21.920Z,99993.97
2018-09-13T20:59:26.375Z,99994.81
2018-09-13T21:02:31.007Z,99997.59
2018-09-13T21:05:36.966Z,99994.32
2018-09-13T21:08:41.508Z,99990.77
2018-09-13T21:11:45.980Z,99990.77
2018-09-13T21:14:50.648Z,99991.76
2018-09-13T21:17:55.207Z,99996.17
2018-09-13T21:20:59.890Z,100003.95
2018-09-13T21:24:04.540Z,100006.66
2018-09-13T21:27:09.042Z,100013.17
2018-09-13T21:30:13.652Z,100013.11
2018-09-13T21:33:18.143Z,100012.30
2018-09-13T21:36:22.892Z,100009.05
2018-09-13T21:39:27.416Z,100012.35
2018-09-13T21:42:31.933Z,100016.93
2018-09-13T21:45:36.408Z,100014.53
2018-09-13T21:48:41.013Z,100017.42
2018-09-13T21:51:45.787Z,100015.94
2018-09-13T21:54:50.378Z,100013.66
2018-09-13T21:57:54.847Z,100007.05
2018-09-13T22:00:59.498Z,100010.33
2018-09-13T22:04:04.219Z,100008.90
2018-09-13T22:07:08.816Z,100007.27
2018-09-13T22:10:13.419Z,100015.53
2018-09-13T22:13:18.139Z,100011.66
2018-09-13T22:16:22.810Z,100023.31
2018-09-13T22:19:27.523Z,100018.91
2018-09-13T22:22:32.036Z,100022.83
2018-09-13T22:25:36.656Z,100021.03
2018-09-13T22:28:41.098Z,100029.13
2018-09-13T22:31:45.601Z,100032.84
2018-09-13T22:34:50.170Z,100040.17
2018-09-13T22:37:54.636Z,100039.08
2018-09-13T22:40:59.123Z,100039.66
2018-09-13T22:44:03.648Z,100038.30
2018-09-13T22:47:08.666Z,100037.03
2018-09-13T22:50:13.314Z,100036.17
2018-09-13T22:53:18.232Z,100040.66
2018-09-13T22:56:22.831Z,100034.81
2018-09-13T22:59:27.424Z,100036.63
2018-09-13T23:02:35.982Z,100034.17
2018-09-13T23:05:40.694Z,100045.65
2018-09-13T23:08:45.276Z,100040.72
2018-09-13T23:11:49.751Z,100038.98
2018-09-13T23:14:54.181Z,100036.77
2018-09-13T23:17:59.035Z,100039.34
2018-09-13T23:21:03.495Z,100036.83
2018-09-13T23:24:08.253Z,100037.37
2018-09-13T23:27:12.769Z,100048.07
2018-09-13T23:30:17.222Z,100048.52
2018-09-13T23:33:21.737Z,100044.73
2018-09-13T23:36:26.386Z,100049.03
2018-09-13T23:39:31.248Z,100048.45
2018-09-13T23:42:35.595Z,100047.83
2018-09-13T23:45:40.024Z,100049.47
2018-09-13T23:48:44.494Z,100051.14
2018-09-13T23:51:48.942Z,100052.73
2018-09-13T23:54:53.383Z,100054.41
2018-09-13T23:57:57.908Z,100044.02
